Time;durP1;ratioP1;P1;durP2;ratioP2;P2;SDS_P1;SDS_P2;PMS_P1;PMS_P2;Temp;Humidity;BMP_temperature;BMP_pressure;BME280_temperature;BME280_humidity;BME280_pressure;Samples;Min_cycle;Max_cycle;Signal;HPM_P1;HPM_P2
2023/03/18 00:01:02;;;;;;;2.80;1.37;;;;;;;12.92;49.71;100081.75;4895993;29;20728;-83
2023/03/18 00:03:31;;;;;;;2.20;1.60;;;;;;;12.89;49.55;100084.69;4908165;29;20210;-83
2023/03/18 00:06:06;;;;;;;3.10;1.60;;;;;;;12.87;50.03;100082.16;4963870;28;20299;-82
2023/03/18 00:08:33;;;;;;;3.33;1.70;;;;;;;12.86;50.26;100088.47;4979138;28;20650;-82
2023/03/18 00:11:00;;;;;;;3.50;1.70;;;;;;;12.84;50.34;100091.25;4969938;28;20232;-81
2023/03/18 00:13:27;;;;;;;2.33;1.63;;;;;;;12.84;50.98;100090.41;4973293;28;20213;-81
2023/03/18 00:15:54;;;;;;;4.23;1.90;;;;;;;12.83;51.16;100086.88;4975077;28;20869;-81
2023/03/18 00:18:20;;;;;;;3.60;2.00;;;;;;;12.79;51.42;100095.28;4976808;28;20231;-83
2023/03/18 00:20:48;;;;;;;3.77;1.60;;;;;;;12.77;51.64;100100.72;4975064;28;20244;-81
2023/03/18 00:23:15;;;;;;;2.63;1.60;;;;;;;12.76;51.82;100112.41;4977475;28;20580;-83
2023/03/18 00:25:42;;;;;;;3.17;1.67;;;;;;;12.74;52.34;100103.66;4966547;28;20291;-81
2023/03/18 00:28:09;;;;;;;3.70;1.60;;;;;;;12.74;52.41;100105.47;4973174;28;20677;-81
2023/03/18 00:30:38;;;;;;;4.17;1.67;;;;;;;12.73;52.72;100103.78;4971605;28;20220;-82
2023/03/18 00:33:05;;;;;;;2.83;1.53;;;;;;;12.73;52.57;100103.78;4969686;28;20206;-83
2023/03/18 00:35:32;;;;;;;3.80;1.80;;;;;;;12.71;52.58;100106.59;4973806;28;20312;-81
2023/03/18 00:38:02;;;;;;;2.20;1.40;;;;;;;12.69;52.67;100111.22;4972136;28;20733;-82
2023/03/18 00:40:41;;;;;;;3.03;1.80;;;;;;;12.68;52.73;100106.84;4972119;28;20231;-84
2023/03/18 00:43:08;;;;;;;5.13;2.50;;;;;;;12.66;53.06;100111.44;4976157;28;20242;-82
2023/03/18 00:45:37;;;;;;;3.10;1.70;;;;;;;12.66;53.16;100108.78;4968096;28;20204;-81
2023/03/18 00:48:04;;;;;;;4.57;2.00;;;;;;;12.66;52.94;100118.63;4980394;28;20201;-82
2023/03/18 00:50:31;;;;;;;2.63;1.83;;;;;;;12.66;53.13;100122.13;4975879;28;20235;-81
2023/03/18 00:52:58;;;;;;;3.10;1.70;;;;;;;12.65;53.10;100124.94;4971667;28;20205;-83
2023/03/18 00:55:26;;;;;;;1.73;1.40;;;;;;;12.64;53.21;100125.91;4971928;28;20587;-84
2023/03/18 00:57:52;;;;;;;1.80;1.43;;;;;;;12.63;53.32;100124.19;4967333;28;20239;-81
2023/03/18 01:00:20;;;;;;;3.87;1.80;;;;;;;12.62;53.54;100133.19;4967858;28;20228;-81
2023/03/18 01:02:48;;;;;;;3.23;1.50;;;;;;;12.61;53.41;100134.16;4975699;28;20207;-84
2023/03/18 01:05:15;;;;;;;2.40;1.60;;;;;;;12.58;53.50;100131.72;4969773;28;20212;-82
2023/03/18 01:07:42;;;;;;;3.43;1.40;;;;;;;12.57;53.84;100124.69;4967230;28;20216;-81
2023/03/18 01:10:09;;;;;;;4.13;1.60;;;;;;;12.55;53.95;100137.31;4973356;28;20247;-83
2023/03/18 01:12:39;;;;;;;3.63;1.77;;;;;;;12.52;53.81;100127.75;4979300;28;20808;-82
2023/03/18 01:15:08;;;;;;;2.40;1.60;;;;;;;12.50;53.87;100122.53;4969681;28;20247;-81
2023/03/18 01:17:34;;;;;;;2.60;1.60;;;;;;;12.47;54.09;100122.75;4969807;28;20266;-81
2023/03/18 01:20:01;;;;;;;3.90;1.57;;;;;;;12.45;54.07;100111.34;4969635;28;20219;-82
2023/03/18 01:22:28;;;;;;;2.10;1.57;;;;;;;12.43;54.17;100115.09;4969063;28;20816;-81
2023/03/18 01:24:56;;;;;;;3.73;1.80;;;;;;;12.41;54.31;100112.56;4971987;28;20223;-81
2023/03/18 01:27:23;;;;;;;2.20;1.37;;;;;;;12.40;54.43;100118.00;4978151;28;20214;-80
2023/03/18 01:29:52;;;;;;;3.43;1.30;;;;;;;12.37;54.75;100118.25;4972145;28;20212;-82
2023/03/18 01:32:18;;;;;;;2.60;1.70;;;;;;;12.36;54.71;100111.25;4976630;28;20231;-81
2023/03/18 01:34:45;;;;;;;4.13;1.70;;;;;;;12.35;54.99;100120.22;4972897;28;20212;-83
2023/03/18 01:37:12;;;;;;;3.23;1.83;;;;;;;12.33;55.01;100127.50;4970921;28;20213;-83
2023/03/18 01:39:39;;;;;;;3.93;1.83;;;;;;;12.31;55.41;100122.28;4973135;28;20225;-82
2023/03/18 01:42:08;;;;;;;2.97;1.53;;;;;;;12.31;55.57;100122.28;4975062;28;20247;-83
2023/03/18 01:44:35;;;;;;;3.47;1.67;;;;;;;12.29;55.28;100121.53;4975783;28;20210;-83
2023/03/18 01:47:03;;;;;;;3.10;1.63;;;;;;;12.29;55.88;100126.03;4980765;28;20218;-83
2023/03/18 01:49:35;;;;;;;3.83;1.87;;;;;;;12.28;55.92;100127.00;4977935;28;20209;-81
2023/03/18 01:52:05;;;;;;;3.33;1.67;;;;;;;12.26;55.83;100121.78;4974109;28;20585;-82
2023/03/18 01:54:35;;;;;;;3.60;1.90;;;;;;;12.26;55.91;100120.94;4972358;28;20281;-83
2023/03/18 01:57:03;;;;;;;3.07;1.43;;;;;;;12.24;56.44;100113.03;4980431;28;20204;-83
2023/03/18 01:59:32;;;;;;;4.23;2.13;;;;;;;12.22;56.61;100117.66;4973680;28;20701;-81
2023/03/18 02:02:05;;;;;;;5.07;1.73;;;;;;;12.22;56.75;100112.31;4977610;28;20700;-82
2023/03/18 02:04:35;;;;;;;2.73;1.80;;;;;;;12.20;56.70;100122.25;4973260;28;20747;-82
2023/03/18 02:07:02;;;;;;;2.63;1.70;;;;;;;12.21;57.12;100123.94;4975181;28;20592;-83
2023/03/18 02:09:29;;;;;;;4.67;1.80;;;;;;;12.19;56.89;100107.19;4973720;28;20204;-81
2023/03/18 02:11:56;;;;;;;3.83;1.80;;;;;;;12.18;57.22;100116.22;4974736;28;20235;-83
2023/03/18 02:14:26;;;;;;;2.87;1.70;;;;;;;12.16;57.59;100127.00;4965201;28;20285;-82
2023/03/18 02:16:56;;;;;;;4.27;2.20;;;;;;;12.16;57.67;100127.00;4972086;28;20259;-82
2023/03/18 02:19:36;;;;;;;3.10;1.90;;;;;;;12.15;57.78;100121.78;4979188;28;20235;-81
2023/03/18 02:22:14;;;;;;;3.07;1.93;;;;;;;12.14;57.74;100120.06;4971774;28;20231;-82
2023/03/18 02:24:50;;;;;;;3.33;2.20;;;;;;;12.12;57.99;100119.34;4972737;28;20280;-84
2023/03/18 02:27:19;;;;;;;4.10;2.00;;;;;;;12.12;58.40;100124.69;4967866;28;20214;-84
2023/03/18 02:29:48;;;;;;;3.53;1.80;;;;;;;12.11;58.68;100129.19;4974190;28;20218;-81
2023/03/18 02:32:16;;;;;;;5.00;1.90;;;;;;;12.11;59.05;100131.00;4981450;28;20234;-81
2023/03/18 02:34:43;;;;;;;4.60;2.60;;;;;;;12.12;59.90;100135.38;4974629;28;20208;-83
2023/03/18 02:37:10;;;;;;;5.20;2.83;;;;;;;12.12;60.41;100130.88;4975138;28;20210;-81
2023/03/18 02:39:37;;;;;;;4.97;3.07;;;;;;;12.16;61.20;100134.16;4974889;28;20247;-82
2023/03/18 02:42:04;;;;;;;5.07;2.47;;;;;;;12.18;61.42;100141.06;4974419;28;20712;-82
2023/03/18 02:44:33;;;;;;;5.73;3.07;;;;;;;12.19;61.88;100136.56;4966062;28;20657;-81
2023/03/18 02:47:02;;;;;;;3.30;2.27;;;;;;;12.18;62.25;100144.72;4971364;28;20208;-81
2023/03/18 02:49:31;;;;;;;3.43;2.77;;;;;;;12.16;62.66;100143.03;4973095;28;20692;-81
2023/03/18 02:51:58;;;;;;;4.30;2.40;;;;;;;12.14;62.89;100136.09;4975193;28;20234;-81
2023/03/18 02:54:28;;;;;;;5.80;2.83;;;;;;;12.12;63.58;100141.56;4966610;28;20216;-81
2023/03/18 02:56:56;;;;;;;4.97;3.17;;;;;;;12.10;63.90;100143.50;4979140;28;20218;-83
2023/03/18 02:59:23;;;;;;;4.97;2.20;;;;;;;12.09;64.06;100140.94;4971327;28;20232;-82
2023/03/18 03:01:53;;;;;;;4.27;2.70;;;;;;;12.06;64.36;100136.69;4968375;28;20226;-81
2023/03/18 03:04:23;;;;;;;6.07;2.63;;;;;;;12.03;64.64;100147.59;4967865;28;20209;-81
2023/03/18 03:06:51;;;;;;;5.83;2.50;;;;;;;12.00;65.13;100155.81;4970905;28;20200;-81
2023/03/18 03:09:19;;;;;;;5.17;3.07;;;;;;;11.98;65.39;100159.59;4976958;28;20214;-81
2023/03/18 03:11:47;;;;;;;3.30;2.50;;;;;;;11.97;66.00;100157.91;4970927;28;20737;-81
2023/03/18 03:14:14;;;;;;;3.93;2.93;;;;;;;11.94;66.19;100163.47;4986092;28;20231;-82
2023/03/18 03:16:41;;;;;;;6.77;3.37;;;;;;;11.92;66.81;100160.91;4977270;28;20232;-82
2023/03/18 03:19:09;;;;;;;6.23;3.00;;;;;;;11.90;67.68;100159.34;4992981;22;20240;-71
2023/03/18 03:21:36;;;;;;;5.53;2.87;;;;;;;11.88;68.22;100166.59;4961121;28;20217;-71
2023/03/18 03:24:03;;;;;;;7.50;3.30;;;;;;;11.86;69.13;100176.53;4959840;28;20207;-71
2023/03/18 03:26:30;;;;;;;5.00;3.23;;;;;;;11.82;69.69;100176.75;4954411;28;20921;-71
2023/03/18 03:28:57;;;;;;;5.47;3.73;;;;;;;11.80;70.09;100178.72;4961609;28;20236;-71
2023/03/18 03:31:25;;;;;;;6.90;3.10;;;;;;;11.79;71.00;100178.84;4958202;28;20251;-70
2023/03/18 03:33:51;;;;;;;6.90;3.37;;;;;;;11.76;71.59;100177.25;4961885;28;20685;-70
2023/03/18 03:36:19;;;;;;;5.63;3.30;;;;;;;11.75;72.46;100174.66;4959739;28;20249;-70
2023/03/18 03:38:45;;;;;;;5.37;3.70;;;;;;;11.70;72.69;100175.00;4961279;28;20243;-71
2023/03/18 03:41:14;;;;;;;7.73;3.33;;;;;;;11.65;73.27;100177.16;4964443;28;20201;-70
2023/03/18 03:43:42;;;;;;;5.47;3.47;;;;;;;11.62;73.84;100173.91;4961509;28;21260;-71
2023/03/18 03:46:09;;;;;;;6.33;3.73;;;;;;;11.58;74.37;100183.09;4965335;28;20284;-71
2023/03/18 03:48:36;;;;;;;5.80;3.53;;;;;;;11.54;74.97;100182.47;4962645;28;20667;-71
2023/03/18 03:51:03;;;;;;;6.37;4.07;;;;;;;11.52;75.50;100175.53;4966985;28;20295;-71
2023/03/18 03:53:32;;;;;;;7.37;3.50;;;;;;;11.50;75.93;100175.63;4963284;28;20292;-71
2023/03/18 03:55:59;;;;;;;7.03;4.10;;;;;;;11.46;76.84;100175.00;4962271;28;20494;-71
2023/03/18 03:58:25;;;;;;;6.80;4.13;;;;;;;11.45;77.25;100177.81;4963369;28;20218;-71
2023/03/18 04:00:52;;;;;;;6.87;4.47;;;;;;;11.42;77.72;100178.03;4969557;28;20210;-71
2023/03/18 04:03:18;;;;;;;6.60;4.80;;;;;;;11.40;78.30;100179.97;4962764;28;20218;-71
2023/03/18 04:05:45;;;;;;;6.93;4.67;;;;;;;11.39;78.87;100179.13;4961930;28;20236;-71
2023/03/18 04:08:11;;;;;;;7.07;4.87;;;;;;;11.36;79.34;100168.69;4963578;28;20672;-71
2023/03/18 04:10:39;;;;;;;6.60;4.50;;;;;;;11.34;79.92;100180.41;4963962;28;20208;-71
2023/03/18 04:13:07;;;;;;;7.00;4.57;;;;;;;11.32;80.43;100174.34;4961339;28;20386;-71
2023/03/18 04:15:34;;;;;;;7.40;5.00;;;;;;;11.28;80.39;100181.75;4959338;28;20267;-72
2023/03/18 04:18:05;;;;;;;6.73;4.70;;;;;;;11.25;80.57;100191.78;4959384;28;20205;-72
2023/03/18 04:20:32;;;;;;;5.77;4.20;;;;;;;11.18;80.96;100180.69;4962913;28;20224;-72
2023/03/18 04:22:59;;;;;;;5.90;4.50;;;;;;;11.12;81.02;100179.31;4961157;28;20236;-72
2023/03/18 04:25:25;;;;;;;5.47;4.03;;;;;;;11.07;81.34;100184.16;4962553;28;20247;-72
2023/03/18 04:27:53;;;;;;;8.50;4.47;;;;;;;11.03;81.30;100182.66;4964929;28;20211;-72
2023/03/18 04:30:22;;;;;;;6.00;4.57;;;;;;;10.99;81.51;100188.31;4959906;28;20208;-72
2023/03/18 04:32:49;;;;;;;7.33;4.23;;;;;;;10.94;82.01;100193.97;4960842;28;20248;-72
2023/03/18 04:35:16;;;;;;;9.03;4.10;;;;;;;10.92;82.35;100206.59;4964725;28;20652;-72
2023/03/18 04:37:43;;;;;;;8.03;4.03;;;;;;;10.90;82.47;100199.66;4958542;28;20202;-72
2023/03/18 04:40:11;;;;;;;8.73;4.60;;;;;;;10.88;82.75;100198.91;4959667;28;20335;-71
2023/03/18 04:42:38;;;;;;;9.70;5.73;;;;;;;10.85;82.98;100199.13;4960879;28;20633;-72
2023/03/18 04:45:07;;;;;;;7.57;5.53;;;;;;;10.82;83.14;100197.53;4959032;28;20232;-72
2023/03/18 04:47:34;;;;;;;10.97;6.33;;;;;;;10.79;83.23;100195.94;4961937;28;20593;-72
2023/03/18 04:50:01;;;;;;;9.03;6.43;;;;;;;10.76;83.86;100190.81;4959308;28;20213;-72
2023/03/18 04:52:27;;;;;;;10.40;5.83;;;;;;;10.73;84.00;100188.41;4964814;28;20208;-71
2023/03/18 04:54:54;;;;;;;8.63;4.87;;;;;;;10.70;84.27;100191.28;4959559;28;20621;-71
2023/03/18 04:57:20;;;;;;;7.17;4.87;;;;;;;10.66;84.45;100194.25;4960647;28;20677;-72
2023/03/18 04:59:47;;;;;;;9.80;4.47;;;;;;;10.60;84.84;100195.53;4958620;28;20693;-71
2023/03/18 05:02:15;;;;;;;7.70;4.40;;;;;;;10.55;84.71;100191.53;4962023;28;20673;-72
2023/03/18 05:04:41;;;;;;;8.10;4.13;;;;;;;10.49;84.99;100191.94;4963890;28;20747;-71
2023/03/18 05:07:08;;;;;;;7.30;4.47;;;;;;;10.43;84.93;100195.88;4961176;28;20221;-72
2023/03/18 05:09:35;;;;;;;7.13;4.40;;;;;;;10.36;85.28;100202.59;4955962;28;20662;-72
2023/03/18 05:12:01;;;;;;;8.30;4.93;;;;;;;10.29;85.56;100191.50;4959922;28;20292;-72
2023/03/18 05:14:28;;;;;;;7.37;4.67;;;;;;;10.26;86.02;100199.72;4960217;28;20223;-72
2023/03/18 05:16:54;;;;;;;7.70;4.47;;;;;;;10.23;86.39;100202.56;4960907;28;20455;-72
2023/03/18 05:19:22;;;;;;;6.23;3.90;;;;;;;10.19;86.21;100195.78;4962767;28;20635;-72
2023/03/18 05:21:49;;;;;;;6.83;4.23;;;;;;;10.17;86.32;100213.63;4964880;28;20267;-71
2023/03/18 05:24:16;;;;;;;8.33;4.27;;;;;;;10.14;86.61;100205.84;4967230;28;20700;-72
2023/03/18 05:26:43;;;;;;;5.73;4.70;;;;;;;10.10;86.92;100196.38;4964133;28;20204;-71
2023/03/18 05:29:10;;;;;;;7.07;4.40;;;;;;;10.06;87.04;100198.38;4963167;28;20287;-71
2023/03/18 05:31:37;;;;;;;5.90;4.60;;;;;;;10.05;86.67;100203.81;4966079;28;20669;-72
2023/03/18 05:34:03;;;;;;;10.33;5.03;;;;;;;10.03;86.78;100211.06;4965059;28;20212;-71
2023/03/18 05:36:31;;;;;;;5.83;4.20;;;;;;;10.00;87.11;100221.91;4965892;28;20205;-72
2023/03/18 05:38:58;;;;;;;6.27;4.03;;;;;;;9.98;87.13;100215.84;4966609;28;20756;-72
2023/03/18 05:41:24;;;;;;;5.03;3.57;;;;;;;9.96;87.47;100221.25;4969361;28;20658;-72
2023/03/18 05:43:51;;;;;;;3.93;3.07;;;;;;;9.94;87.35;100220.50;4966468;28;20217;-72
2023/03/18 05:46:17;;;;;;;4.47;3.30;;;;;;;9.92;87.42;100222.41;4965942;28;20240;-72
2023/03/18 05:48:44;;;;;;;5.30;3.13;;;;;;;9.90;87.92;100219.00;4966320;28;20205;-72
2023/03/18 05:51:11;;;;;;;4.73;2.93;;;;;;;9.92;88.38;100217.09;4969280;28;20211;-71
2023/03/18 05:53:39;;;;;;;6.60;3.20;;;;;;;9.92;88.49;100225.06;4964779;28;20201;-72
2023/03/18 05:56:07;;;;;;;6.63;3.13;;;;;;;9.90;88.35;100221.66;4957791;28;20580;-72
2023/03/18 05:58:33;;;;;;;8.87;3.70;;;;;;;9.85;88.20;100221.13;4959499;28;20201;-72
2023/03/18 06:01:00;;;;;;;7.73;3.73;;;;;;;9.78;87.87;100224.28;4959739;28;20529;-72
2023/03/18 06:03:28;;;;;;;5.70;3.60;;;;;;;9.72;87.40;100241.50;4964538;28;20274;-72
2023/03/18 06:05:55;;;;;;;5.83;3.80;;;;;;;9.68;87.88;100237.34;4965836;28;20240;-72
2023/03/18 06:08:22;;;;;;;7.77;3.90;;;;;;;9.63;87.66;100232.34;4963036;28;20208;-72
2023/03/18 06:10:50;;;;;;;7.07;4.20;;;;;;;9.59;87.18;100228.19;4960644;28;20204;-72
2023/03/18 06:13:16;;;;;;;4.50;3.43;;;;;;;9.54;87.89;100230.28;4964371;28;20211;-72
2023/03/18 06:15:43;;;;;;;4.17;3.77;;;;;;;9.52;87.89;100236.66;4962551;28;20228;-72
2023/03/18 06:18:10;;;;;;;5.27;3.70;;;;;;;9.48;87.92;100241.34;4966526;28;20236;-72
2023/03/18 06:20:36;;;;;;;5.20;3.70;;;;;;;9.46;87.44;100234.41;4964030;28;20227;-72
2023/03/18 06:23:04;;;;;;;7.43;4.47;;;;;;;9.43;88.09;100239.91;4958597;28;21434;-72
2023/03/18 06:25:31;;;;;;;7.07;3.33;;;;;;;9.41;87.59;100232.03;4960413;28;20231;-72
2023/03/18 06:27:59;;;;;;;5.60;3.33;;;;;;;9.39;88.14;100231.28;4963767;28;20598;-72
2023/03/18 06:30:25;;;;;;;5.87;4.23;;;;;;;9.38;88.65;100225.13;4966312;28;20208;-72
2023/03/18 06:32:52;;;;;;;6.67;3.73;;;;;;;9.42;89.72;100235.56;4963840;28;20205;-72
2023/03/18 06:35:19;;;;;;;8.70;3.27;;;;;;;9.48;90.38;100238.69;4962556;28;20652;-73
2023/03/18 06:37:45;;;;;;;4.33;3.07;;;;;;;9.55;90.83;100237.31;4952899;28;20221;-72
2023/03/18 06:40:12;;;;;;;6.77;3.10;;;;;;;9.61;91.14;100236.91;4966206;28;20239;-72
2023/03/18 06:42:39;;;;;;;6.50;3.00;;;;;;;9.67;91.31;100248.97;4956713;28;20670;-72
2023/03/18 06:45:09;;;;;;;8.53;3.17;;;;;;;9.71;90.93;100253.09;4952211;28;20228;-72
2023/03/18 06:47:35;;;;;;;6.70;2.77;;;;;;;9.76;91.08;100245.69;4964870;28;20467;-72
2023/03/18 06:50:02;;;;;;;3.90;2.83;;;;;;;9.79;91.20;100250.78;4963544;28;20224;-72
2023/03/18 06:52:28;;;;;;;4.97;3.20;;;;;;;9.80;90.91;100256.97;4966651;28;20204;-72
2023/03/18 06:54:55;;;;;;;3.10;2.63;;;;;;;9.79;90.59;100265.91;4962888;28;20231;-72
2023/03/18 06:57:21;;;;;;;5.83;3.30;;;;;;;9.77;90.72;100265.13;4966825;28;20204;-72
2023/03/18 06:59:48;;;;;;;7.43;3.10;;;;;;;9.76;90.77;100264.28;4959879;28;20235;-72
2023/03/18 07:02:16;;;;;;;5.23;2.80;;;;;;;9.81;91.09;100266.66;4967507;28;20204;-72
2023/03/18 07:04:43;;;;;;;5.77;2.97;;;;;;;9.84;91.38;100267.31;4964214;28;20513;-72
2023/03/18 07:07:09;;;;;;;3.50;2.63;;;;;;;9.92;91.73;100272.09;4965275;28;20573;-72
2023/03/18 07:09:36;;;;;;;4.57;2.67;;;;;;;9.97;91.84;100275.31;4958131;28;20211;-72
2023/03/18 07:12:05;;;;;;;5.23;2.90;;;;;;;10.02;91.81;100279.38;4963713;28;21072;-72
2023/03/18 07:14:31;;;;;;;6.57;3.17;;;;;;;10.09;92.27;100285.97;4963219;28;20725;-73
2023/03/18 07:16:58;;;;;;;4.37;2.87;;;;;;;10.18;92.59;100289.00;4964841;28;20240;-73
2023/03/18 07:19:26;;;;;;;4.50;3.00;;;;;;;10.24;92.61;100289.44;4963770;28;20224;-72
2023/03/18 07:21:52;;;;;;;3.97;2.80;;;;;;;10.28;92.86;100285.63;4965517;28;20228;-73
2023/03/18 07:24:20;;;;;;;5.80;3.37;;;;;;;10.36;92.71;100293.97;4961937;28;20235;-72
2023/03/18 07:26:49;;;;;;;5.00;2.77;;;;;;;10.43;92.96;100303.22;4958090;28;20217;-73
2023/03/18 07:29:16;;;;;;;4.40;3.17;;;;;;;10.50;92.72;100311.66;4958824;28;20212;-73
2023/03/18 07:31:43;;;;;;;6.33;3.63;;;;;;;10.56;92.88;100305.06;4963205;28;20204;-73
2023/03/18 07:34:09;;;;;;;6.17;3.10;;;;;;;10.62;92.80;100304.63;4960733;28;20239;-72
2023/03/18 07:36:37;;;;;;;4.20;2.73;;;;;;;10.68;92.86;100312.19;4962585;28;20288;-72
2023/03/18 07:39:05;;;;;;;5.37;2.47;;;;;;;10.77;92.87;100314.19;4956626;28;20208;-72
2023/03/18 07:41:32;;;;;;;5.37;2.73;;;;;;;10.84;92.86;100315.50;4960031;28;20914;-73
2023/03/18 07:43:59;;;;;;;5.27;2.87;;;;;;;10.92;93.08;100315.81;4960990;28;20217;-72
2023/03/18 07:46:26;;;;;;;3.83;2.70;;;;;;;11.02;93.07;100319.53;4961050;28;20602;-73
2023/03/18 07:48:53;;;;;;;3.47;2.63;;;;;;;11.15;93.40;100319.50;4957730;28;20256;-73
2023/03/18 07:51:19;;;;;;;4.47;2.70;;;;;;;11.31;93.77;100321.94;4961848;28;20295;-72
2023/03/18 07:53:49;;;;;;;4.30;2.63;;;;;;;11.46;93.80;100326.19;4962963;28;20216;-73
2023/03/18 07:56:16;;;;;;;3.60;2.40;;;;;;;11.65;93.31;100325.69;4964840;28;20227;-73
2023/03/18 07:58:42;;;;;;;3.80;2.70;;;;;;;11.76;92.43;100328.47;4962188;28;20222;-73
2023/03/18 08:01:09;;;;;;;3.73;2.50;;;;;;;11.89;92.20;100336.41;4958827;28;20624;-73
2023/03/18 08:03:35;;;;;;;3.13;2.60;;;;;;;12.02;91.99;100327.38;4964131;28;20232;-73
2023/03/18 08:06:02;;;;;;;5.30;2.53;;;;;;;12.15;91.09;100335.34;4961696;28;20238;-73
2023/03/18 08:08:28;;;;;;;5.07;2.30;;;;;;;12.26;90.32;100335.38;4959372;28;20212;-72
2023/03/18 08:10:58;;;;;;;2.70;1.90;;;;;;;12.35;89.28;100328.50;4959245;28;20219;-73
2023/03/18 08:13:25;;;;;;;5.70;2.40;;;;;;;12.46;87.93;100331.19;4962952;28;20223;-73
2023/03/18 08:15:52;;;;;;;4.53;2.97;;;;;;;12.50;87.38;100344.22;4959697;28;20264;-73
2023/03/18 08:18:19;;;;;;;4.13;2.37;;;;;;;12.57;87.20;100349.91;4959287;28;20226;-73
2023/03/18 08:20:47;;;;;;;3.40;2.17;;;;;;;12.66;86.92;100353.72;4965324;28;20271;-73
2023/03/18 08:23:14;;;;;;;4.47;2.43;;;;;;;12.70;86.71;100347.19;4963379;28;20204;-73
2023/03/18 08:25:41;;;;;;;5.67;2.30;;;;;;;12.80;86.12;100348.16;4957627;28;20252;-73
2023/03/18 08:28:10;;;;;;;2.43;2.10;;;;;;;12.90;85.91;100345.66;4958672;28;20212;-74
2023/03/18 08:30:38;;;;;;;5.67;2.83;;;;;;;13.00;85.80;100342.13;4966523;28;20211;-74
2023/03/18 08:33:05;;;;;;;2.77;2.47;;;;;;;13.15;85.76;100340.94;4967434;28;20208;-73
2023/03/18 08:35:32;;;;;;;4.80;2.63;;;;;;;13.32;84.12;100334.25;4959925;28;20247;-73
2023/03/18 08:37:59;;;;;;;4.10;2.77;;;;;;;13.45;84.32;100337.66;4965749;28;20207;-73
2023/03/18 08:40:26;;;;;;;4.07;2.10;;;;;;;13.60;83.82;100342.75;4962422;28;20612;-73
2023/03/18 08:42:53;;;;;;;4.13;2.07;;;;;;;13.73;83.14;100347.00;4962492;28;20205;-73
2023/03/18 08:45:21;;;;;;;2.90;2.50;;;;;;;13.85;82.46;100355.84;4963845;28;20262;-73
2023/03/18 08:47:48;;;;;;;7.03;2.30;;;;;;;13.93;80.94;100356.06;4965353;28;20226;-74
2023/03/18 08:50:15;;;;;;;4.57;2.50;;;;;;;14.07;80.18;100360.28;4961906;28;20382;-73
2023/03/18 08:52:42;;;;;;;4.87;2.10;;;;;;;14.18;80.61;100361.09;4962837;28;20224;-73
2023/03/18 08:55:09;;;;;;;4.27;2.10;;;;;;;14.23;78.94;100366.06;4965852;28;20227;-74
2023/03/18 08:57:36;;;;;;;3.87;2.30;;;;;;;14.31;78.87;100368.13;4964896;28;20286;-74
2023/03/18 09:00:04;;;;;;;3.47;2.23;;;;;;;14.32;78.00;100365.31;4960462;28;20216;-74
2023/03/18 09:02:32;;;;;;;3.27;2.37;;;;;;;14.29;76.73;100370.09;4963969;28;20214;-73
2023/03/18 09:04:58;;;;;;;6.83;2.70;;;;;;;14.30;76.52;100366.44;4964421;28;20286;-73
2023/03/18 09:07:25;;;;;;;4.50;2.47;;;;;;;14.34;76.63;100379.41;4960935;28;20211;-73
2023/03/18 09:09:52;;;;;;;3.63;2.30;;;;;;;14.31;76.44;100376.16;4963701;28;20238;-73
2023/03/18 09:12:19;;;;;;;4.47;2.50;;;;;;;14.27;75.48;100378.25;4959431;28;20295;-72
2023/03/18 09:14:46;;;;;;;5.27;2.60;;;;;;;14.27;75.44;100377.41;4964549;28;20246;-73
2023/03/18 09:17:13;;;;;;;5.30;3.07;;;;;;;14.22;75.52;100381.28;4965672;28;20297;-74
2023/03/18 09:19:41;;;;;;;3.20;2.33;;;;;;;14.22;75.58;100381.28;4965080;28;20685;-73
2023/03/18 09:22:09;;;;;;;3.97;3.07;;;;;;;14.23;75.70;100380.31;4961363;28;20240;-74
2023/03/18 09:24:35;;;;;;;5.30;3.20;;;;;;;14.21;75.16;100386.78;4965668;28;20224;-74
2023/03/18 09:27:02;;;;;;;5.43;3.27;;;;;;;14.18;74.99;100381.66;4959743;28;20219;-73
2023/03/18 09:29:28;;;;;;;3.20;2.90;;;;;;;14.17;74.85;100377.28;4962947;28;20560;-74
2023/03/18 09:31:55;;;;;;;4.37;3.17;;;;;;;14.12;74.72;100387.56;4955709;28;20733;-74
2023/03/18 09:34:21;;;;;;;3.77;3.20;;;;;;;14.19;75.00;100386.03;4961600;28;20228;-73
2023/03/18 09:36:51;;;;;;;4.30;3.63;;;;;;;14.33;76.03;100385.75;4960568;28;20224;-73
2023/03/18 09:39:18;;;;;;;5.80;3.43;;;;;;;14.51;75.92;100384.25;4960984;28;20690;-73
2023/03/18 09:41:58;;;;;;;3.43;2.90;;;;;;;14.72;75.86;100378.06;4959521;28;20232;-73
2023/03/18 09:44:27;;;;;;;5.43;3.03;;;;;;;14.86;73.96;100380.44;4961258;28;20591;-74
2023/03/18 09:47:11;;;;;;;4.03;2.97;;;;;;;14.98;72.81;100379.38;4960418;28;20296;-73
2023/03/18 09:49:56;;;;;;;4.53;3.20;;;;;;;15.12;73.21;100384.41;4952080;28;20206;-73
2023/03/18 09:52:29;;;;;;;5.73;3.30;;;;;;;15.24;72.23;100377.97;4959551;28;20361;-73
2023/03/18 09:55:02;;;;;;;5.13;3.03;;;;;;;15.35;71.28;100386.94;4954401;28;20319;-72
2023/03/18 09:57:33;;;;;;;4.73;3.20;;;;;;;15.42;69.91;100386.22;4957976;28;20213;-74
2023/03/18 10:00:07;;;;;;;5.57;3.20;;;;;;;15.48;69.34;100385.72;4956232;28;20295;-73
2023/03/18 10:02:39;;;;;;;3.90;2.93;;;;;;;15.54;68.69;100387.88;4963693;28;20290;-74
2023/03/18 10:05:12;;;;;;;4.90;2.97;;;;;;;15.59;68.64;100382.09;4963490;28;20247;-74
2023/03/18 10:07:43;;;;;;;4.50;2.83;;;;;;;15.66;68.93;100388.63;4964779;28;20208;-74
2023/03/18 10:10:16;;;;;;;3.67;2.77;;;;;;;15.72;68.71;100393.47;4964540;28;20208;-74
2023/03/18 10:12:48;;;;;;;4.17;3.07;;;;;;;15.79;68.10;100397.28;4964412;28;20666;-74
2023/03/18 10:15:18;;;;;;;3.80;3.40;;;;;;;15.81;67.69;100395.31;4960324;28;20228;-74
2023/03/18 10:17:48;;;;;;;3.87;2.60;;;;;;;15.85;67.64;100407.50;4962697;28;20209;-73
2023/03/18 10:20:18;;;;;;;4.33;2.83;;;;;;;15.82;66.42;100396.16;4964078;28;20205;-73
2023/03/18 10:23:10;;;;;;;4.60;3.23;;;;;;;15.80;66.98;100399.00;4956338;28;20351;-74
2023/03/18 10:25:41;;;;;;;3.33;3.03;;;;;;;15.78;66.75;100398.28;4957359;28;20235;-74
2023/03/18 10:28:37;;;;;;;3.13;2.70;;;;;;;15.75;66.42;100400.41;4963134;28;20209;-74
2023/03/18 10:31:16;;;;;;;4.03;3.17;;;;;;;15.69;66.47;100396.41;4960145;28;20362;-74
2023/03/18 10:33:47;;;;;;;3.40;2.33;;;;;;;15.71;67.08;100396.28;4958261;28;20228;-74
2023/03/18 10:36:19;;;;;;;2.57;1.70;;;;;;;15.71;66.88;100394.44;4961449;28;20220;-74
2023/03/18 10:38:49;;;;;;;3.17;2.10;;;;;;;15.75;66.84;100395.03;4957326;28;20846;-73
2023/03/18 10:41:21;;;;;;;4.40;2.63;;;;;;;15.81;66.58;100394.47;4961161;28;20236;-74
2023/03/18 10:43:50;;;;;;;3.47;2.00;;;;;;;15.79;65.61;100401.81;4958859;28;20406;-74
2023/03/18 10:46:20;;;;;;;3.20;2.27;;;;;;;15.75;65.41;100395.03;4960277;28;20235;-73
2023/03/18 10:48:51;;;;;;;4.43;2.53;;;;;;;15.78;65.52;100392.06;4960497;28;20206;-73
2023/03/18 10:51:23;;;;;;;4.13;2.57;;;;;;;15.80;65.78;100392.78;4960851;28;20204;-73
2023/03/18 10:53:58;;;;;;;3.53;2.40;;;;;;;15.89;65.56;100391.97;4954980;28;20233;-74
2023/03/18 10:56:26;;;;;;;2.30;2.10;;;;;;;15.97;65.29;100398.34;4955525;28;20232;-74
2023/03/18 10:58:52;;;;;;;4.10;2.57;;;;;;;16.01;64.69;100396.22;4956929;28;20700;-74
2023/03/18 11:01:23;;;;;;;2.80;1.80;;;;;;;16.03;63.69;100391.56;4957122;28;20231;-74
2023/03/18 11:03:54;;;;;;;2.53;2.03;;;;;;;16.06;63.14;100393.97;4954575;28;20215;-74
2023/03/18 11:06:25;;;;;;;2.83;2.07;;;;;;;16.10;62.69;100389.19;4958506;28;20251;-74
2023/03/18 11:09:03;;;;;;;2.53;2.00;;;;;;;16.15;62.88;100384.22;4961564;28;20234;-74
2023/03/18 11:11:33;;;;;;;3.40;1.83;;;;;;;16.25;61.67;100385.09;4959971;28;20587;-74
2023/03/18 11:14:02;;;;;;;2.40;2.10;;;;;;;16.29;61.53;100392.75;4957451;28;20217;-74
2023/03/18 11:16:32;;;;;;;3.67;2.53;;;;;;;16.30;61.53;100390.91;4958545;28;20225;-74
2023/03/18 11:18:59;;;;;;;2.83;2.27;;;;;;;16.35;61.98;100390.47;4959757;28;20219;-75
2023/03/18 11:21:28;;;;;;;3.20;2.10;;;;;;;16.45;62.34;100394.88;4956342;28;20238;-74
2023/03/18 11:26:46;;;;;;;2.00;1.90;;;;;;;16.64;59.99;100400.28;4959336;28;20271;-74
2023/03/18 11:29:17;;;;;;;2.83;2.00;;;;;;;16.70;60.36;100398.84;4950369;28;20241;-74
2023/03/18 11:31:53;;;;;;;3.43;2.13;;;;;;;16.79;60.74;100411.47;4958016;28;20209;-75
2023/03/18 11:34:20;;;;;;;2.00;1.67;;;;;;;16.87;60.10;100403.50;4956672;28;20224;-73